KAVX/AVX METAR and TAF weather

Enter ICAO airport designator
Station Type Date Time Source
KAVX METAR 2021/03/03 21:00 UTC NOAA

KAVX 032100Z AUTO 11008KT 10SM BKN005 BKN015 OVC022 11/08 A2982 RMK AO2 CIG 003V011 T01060078


Station Type Date Time Source
KAVX Decoded METAR 2021/03/03 21:00 UTC NOAA

AVALON CATALINA AIRPORT, CA, United States (KAVX) 33-24N 118-25W 482M
Mar 03, 2021 - 04:00 PM EST / 2021.03.03 2100 UTC
Wind: from the ESE (110 degrees) at 9 MPH (8 KT):0
Visibility: 10 mile(s):0
Sky conditions: overcast
Temperature: 51.1 F (10.6 C)
Dew Point: 46.0 F (7.8 C)
Relative Humidity: 82%
Pressure (altimeter): 29.82 in. Hg (1009 hPa)
ob: KAVX 032100Z AUTO 11008KT 10SM BKN005 BKN015 OVC022 11/08 A2982 RMK AO2 CIG 003V011 T01060078
cycle: 21

Station Type Date Time Source
KAVX TAF UTC NOAA

Error!

Example: see airport list